Time;durP1;ratioP1;P1;durP2;ratioP2;P2;SDS_P1;SDS_P2;PMS_P1;PMS_P2;Temp;Humidity;BMP_temperature;BMP_pressure;BME280_temperature;BME280_humidity;BME280_pressure;Samples;Min_cycle;Max_cycle;Signal;HPM_P1;HPM_P2
2022/08/22 05:48:44;;;;;;;3.53;0.85;;;20.30;67.60;;;;;;6122758;23;20037;-70
2022/08/22 08:08:17;;;;;;;11.25;2.60;;;21.10;70.60;;;;;;6177064;23;19916;-71
2022/08/22 08:10:43;;;;;;;12.00;2.97;;;21.10;70.80;;;;;;6215915;23;20036;-71
2022/08/22 08:13:20;;;;;;;8.35;2.50;;;21.10;70.90;;;;;;6217690;23;20087;-71
2022/08/22 08:15:46;;;;;;;6.45;1.98;;;21.20;71.00;;;;;;6217520;23;20016;-71
2022/08/22 08:18:20;;;;;;;10.73;2.45;;;21.20;70.90;;;;;;6191260;23;20393;-71
2022/08/22 08:20:57;;;;;;;7.22;2.45;;;21.30;71.00;;;;;;6191520;23;20348;-71
2022/08/22 08:23:25;;;;;;;8.63;2.35;;;21.30;71.00;;;;;;6217136;23;20376;-71
2022/08/22 08:26:12;;;;;;;7.72;1.88;;;21.40;70.80;;;;;;6217239;23;20013;-71
2022/08/22 08:28:45;;;;;;;10.07;1.95;;;21.40;70.80;;;;;;6217075;23;20429;-71
2022/08/22 08:31:24;;;;;;;6.72;2.30;;;21.40;70.70;;;;;;6217470;23;20020;-71
2022/08/22 08:33:59;;;;;;;9.93;2.40;;;21.50;70.70;;;;;;6217300;23;20356;-71
2022/08/22 08:36:48;;;;;;;7.72;2.25;;;21.50;70.60;;;;;;6191326;23;20051;-71
2022/08/22 08:39:30;;;;;;;7.22;1.80;;;21.50;70.60;;;;;;6217515;23;20051;-71
2022/08/22 08:42:13;;;;;;;5.28;1.90;;;21.60;70.50;;;;;;6217170;23;20417;-71
2022/08/22 08:44:48;;;;;;;5.72;2.08;;;21.60;70.40;;;;;;6217315;23;20020;-72
2022/08/22 08:47:52;;;;;;;4.80;1.92;;;21.60;70.30;;;;;;6217022;23;20095;-71
2022/08/22 08:50:45;;;;;;;6.70;2.05;;;21.60;70.30;;;;;;6097168;23;20050;-71
2022/08/22 08:54:10;;;;;;;7.03;1.98;;;21.70;70.10;;;;;;6097601;23;20050;-72
2022/08/22 08:57:19;;;;;;;4.72;1.90;;;21.70;70.10;;;;;;6156929;23;20057;-71
2022/08/22 09:00:42;;;;;;;6.85;1.88;;;21.70;70.10;;;;;;6217648;23;20031;-72
2022/08/22 09:03:38;;;;;;;5.97;2.03;;;21.70;70.00;;;;;;6247105;23;20031;-71
2022/08/22 09:06:17;;;;;;;7.70;1.80;;;21.70;70.00;;;;;;6248945;23;20083;-71
2022/08/22 09:09:00;;;;;;;3.92;1.80;;;21.80;70.00;;;;;;6248792;23;20069;-71
2022/08/22 09:11:48;;;;;;;4.80;2.30;;;21.80;70.00;;;;;;6248383;23;20016;-71
2022/08/22 09:14:41;;;;;;;4.18;1.60;;;21.80;70.00;;;;;;6248517;23;20058;-70
2022/08/22 09:17:44;;;;;;;8.23;2.22;;;21.90;69.90;;;;;;6249198;23;20055;-72
2022/08/22 09:20:25;;;;;;;10.23;1.90;;;21.90;69.70;;;;;;6248701;23;20099;-71
2022/08/22 09:23:24;;;;;;;7.60;1.85;;;21.90;69.50;;;;;;6248576;23;20020;-71
2022/08/22 09:25:54;;;;;;;4.55;1.50;;;21.90;69.30;;;;;;6248871;23;20024;-71
2022/08/22 09:28:19;;;;;;;5.70;1.60;;;21.90;69.20;;;;;;6248843;23;20021;-70
2022/08/22 09:31:30;;;;;;;6.00;1.48;;;21.90;69.10;;;;;;6248735;23;20078;-71
2022/08/22 09:34:27;;;;;;;4.07;1.45;;;22.00;69.10;;;;;;6232525;23;20479;-71
2022/08/22 09:37:12;;;;;;;8.40;1.83;;;22.00;69.10;;;;;;6248832;23;20027;-70
2022/08/22 09:39:59;;;;;;;7.68;2.08;;;22.00;69.10;;;;;;6248322;23;20012;-70
2022/08/22 09:42:32;;;;;;;7.38;1.67;;;22.00;69.10;;;;;;6247297;23;20421;-70
2022/08/22 09:45:36;;;;;;;4.85;1.50;;;22.00;69.20;;;;;;6248597;23;20074;-70
2022/08/22 09:48:20;;;;;;;7.35;1.77;;;22.10;69.30;;;;;;6249065;23;20086;-71
2022/08/22 09:51:23;;;;;;;5.63;1.90;;;22.10;69.20;;;;;;6248946;23;20043;-71
2022/08/22 09:54:16;;;;;;;5.47;1.98;;;22.10;69.20;;;;;;6248695;23;20020;-71
2022/08/22 09:57:23;;;;;;;8.70;1.73;;;22.10;69.10;;;;;;6248161;23;20028;-71
2022/08/22 10:00:19;;;;;;;9.07;1.80;;;22.10;69.10;;;;;;6181262;23;20030;-71
2022/08/22 10:02:54;;;;;;;6.65;1.90;;;22.10;69.00;;;;;;6223753;23;20034;-72
2022/08/22 10:05:26;;;;;;;8.73;1.58;;;22.10;69.00;;;;;;6248759;23;20024;-73
2022/08/22 10:08:18;;;;;;;13.18;2.53;;;22.20;68.90;;;;;;6248390;23;20104;-74
2022/08/22 10:11:02;;;;;;;10.38;2.67;;;22.20;68.70;;;;;;6247686;23;20109;-71
2022/08/22 10:13:49;;;;;;;10.88;2.72;;;22.20;68.70;;;;;;6248483;23;20020;-71
2022/08/22 10:16:45;;;;;;;6.95;1.70;;;22.20;68.70;;;;;;6248596;23;20012;-71
2022/08/22 10:19:29;;;;;;;7.00;2.35;;;22.20;68.90;;;;;;6247888;23;20424;-73
2022/08/22 10:22:14;;;;;;;;;;;22.20;69.00;;;;;;6249073;23;20306;-72
2022/08/22 10:25:08;;;;;;;8.38;1.90;;;22.20;69.20;;;;;;6247699;23;19919;-74
2022/08/22 10:28:04;;;;;;;7.53;2.28;;;22.30;69.30;;;;;;6247910;23;20313;-72
2022/08/22 10:31:19;;;;;;;10.30;2.20;;;22.30;69.50;;;;;;6247919;23;20024;-73
2022/08/22 10:34:20;;;;;;;8.82;2.30;;;22.30;69.30;;;;;;6232115;23;20020;-74
2022/08/22 10:36:57;;;;;;;9.07;2.33;;;22.30;69.80;;;;;;6221531;23;20016;-71
2022/08/22 10:39:31;;;;;;;7.13;1.77;;;22.40;68.20;;;;;;6248523;23;20278;-73
2022/08/22 10:42:23;;;;;;;11.10;1.67;;;22.40;67.50;;;;;;6247985;23;20231;-73
2022/08/22 10:45:09;;;;;;;9.70;2.65;;;22.40;67.70;;;;;;6247927;23;20016;-74
2022/08/22 10:48:00;;;;;;;12.52;1.95;;;22.40;67.60;;;;;;6247763;23;20023;-72
2022/08/22 10:50:32;;;;;;;8.07;2.33;;;22.40;67.30;;;;;;6248121;23;20016;-73
2022/08/22 10:56:08;;;;;;;4.90;1.38;;;22.50;66.40;;;;;;6247897;23;20028;-71
2022/08/22 10:58:45;;;;;;;8.98;1.95;;;22.50;66.50;;;;;;6247921;23;20042;-71
2022/08/22 11:01:13;;;;;;;5.97;1.70;;;22.60;66.60;;;;;;6248013;23;20027;-71
2022/08/22 11:03:42;;;;;;;10.93;1.85;;;22.60;66.50;;;;;;6221704;23;20015;-71
2022/08/22 11:06:35;;;;;;;5.93;1.75;;;22.50;66.30;;;;;;6247824;23;20027;-71
2022/08/22 11:09:06;;;;;;;6.05;1.85;;;22.60;66.60;;;;;;6247507;23;20325;-71
2022/08/22 11:11:38;;;;;;;5.55;1.55;;;22.50;66.60;;;;;;6247689;23;20016;-71
2022/08/22 11:14:31;;;;;;;9.05;2.15;;;22.60;66.40;;;;;;6221470;23;20019;-71
2022/08/22 11:17:31;;;;;;;5.97;1.87;;;22.50;66.30;;;;;;6247236;23;20031;-71
2022/08/22 11:20:15;;;;;;;5.88;1.88;;;22.60;66.40;;;;;;6247759;23;20085;-71
2022/08/22 11:22:47;;;;;;;;;;;22.50;66.20;;;;;;6248168;23;20031;-71
2022/08/22 11:25:25;;;;;;;7.18;1.50;;;22.60;66.40;;;;;;6247310;23;19915;-70
2022/08/22 11:28:12;;;;;;;5.93;1.80;;;22.60;66.10;;;;;;6247619;23;20012;-71
2022/08/22 11:30:44;;;;;;;5.68;1.50;;;22.60;66.10;;;;;;6248459;23;20016;-70
2022/08/22 11:33:28;;;;;;;7.18;1.98;;;22.60;65.90;;;;;;6247647;23;20028;-70
2022/08/22 11:36:38;;;;;;;8.23;2.08;;;22.60;65.80;;;;;;6247507;23;20012;-70
2022/08/22 11:39:29;;;;;;;7.75;1.75;;;22.60;65.80;;;;;;6180990;23;20031;-70
2022/08/22 11:42:32;;;;;;;9.52;1.88;;;22.60;65.80;;;;;;6247513;23;20020;-72
2022/08/22 11:45:00;;;;;;;6.88;1.73;;;22.60;65.40;;;;;;6247742;23;20058;-71
2022/08/22 11:47:31;;;;;;;3.70;1.80;;;22.60;65.40;;;;;;6247593;23;20027;-74
2022/08/22 11:50:34;;;;;;;8.10;1.67;;;22.60;65.00;;;;;;6247684;23;20013;-71
2022/08/22 11:53:16;;;;;;;6.30;1.58;;;22.60;64.90;;;;;;6221199;23;20031;-70
2022/08/22 11:55:54;;;;;;;6.95;2.05;;;22.60;65.30;;;;;;6247533;23;20425;-69
2022/08/22 11:58:46;;;;;;;6.90;1.70;;;22.50;65.40;;;;;;6247565;23;20024;-72
2022/08/22 12:01:18;;;;;;;8.80;1.55;;;22.60;65.30;;;;;;6186032;23;20016;-71
2022/08/22 12:04:05;;;;;;;5.22;1.85;;;22.60;65.50;;;;;;6247737;23;20012;-71
2022/08/22 12:06:56;;;;;;;9.07;2.33;;;22.60;65.70;;;;;;6247880;23;20016;-71
2022/08/22 12:09:44;;;;;;;6.07;1.88;;;22.60;65.90;;;;;;6247471;23;20039;-71
2022/08/22 12:12:20;;;;;;;4.90;1.67;;;22.60;66.20;;;;;;6247476;23;20031;-70
2022/08/22 12:15:05;;;;;;;8.55;2.15;;;22.60;66.20;;;;;;6247773;23;20290;-69
2022/08/22 12:17:34;;;;;;;10.88;2.25;;;22.60;66.40;;;;;;6247487;23;20055;-70
2022/08/22 12:20:17;;;;;;;10.50;2.40;;;22.60;66.60;;;;;;6247659;23;20091;-71
2022/08/22 12:23:14;;;;;;;12.40;1.83;;;22.60;66.60;;;;;;6248816;23;20020;-72
2022/08/22 12:26:07;;;;;;;7.85;1.95;;;22.70;66.90;;;;;;6197987;23;20023;-71
2022/08/22 12:29:13;;;;;;;9.77;2.17;;;22.60;67.30;;;;;;6249400;23;20020;-71
2022/08/22 12:32:04;;;;;;;8.40;1.75;;;22.60;67.60;;;;;;6249429;23;20020;-74
2022/08/22 12:35:00;;;;;;;8.10;1.70;;;22.60;67.70;;;;;;6249237;23;20027;-74
2022/08/22 12:37:44;;;;;;;7.93;2.28;;;22.70;66.80;;;;;;6249341;23;20020;-73
2022/08/22 12:40:29;;;;;;;10.25;2.42;;;22.70;66.60;;;;;;6249438;23;20081;-74
2022/08/22 12:42:54;;;;;;;6.63;1.50;;;22.70;67.20;;;;;;6249602;23;20016;-75
2022/08/22 12:45:45;;;;;;;7.43;1.55;;;22.70;66.40;;;;;;6248725;23;20447;-77
2022/08/22 12:48:29;;;;;;;7.78;1.90;;;22.80;64.60;;;;;;6249402;23;20020;-74
2022/08/22 12:51:09;;;;;;;11.45;2.42;;;22.90;65.40;;;;;;6248932;23;20074;-75
2022/08/22 12:53:47;;;;;;;4.95;2.00;;;22.80;65.50;;;;;;6248758;23;20617;-77
2022/08/22 12:56:34;;;;;;;6.88;1.90;;;22.80;64.80;;;;;;6248968;23;20042;-76
2022/08/22 12:59:31;;;;;;;6.95;1.83;;;22.80;65.10;;;;;;6249145;23;20074;-73
2022/08/22 13:02:11;;;;;;;5.80;1.63;;;22.80;65.50;;;;;;6223311;23;20091;-75
2022/08/22 13:04:47;;;;;;;6.72;2.05;;;22.90;63.00;;;;;;6248655;23;20024;-73
2022/08/22 13:07:21;;;;;;;6.20;1.80;;;22.90;63.90;;;;;;6249488;23;20020;-75
2022/08/22 13:09:51;;;;;;;6.28;1.98;;;22.90;66.30;;;;;;6249240;23;20085;-73
2022/08/22 13:12:19;;;;;;;6.13;1.95;;;22.90;66.00;;;;;;6248979;23;20016;-73
2022/08/22 13:14:51;;;;;;;6.35;2.00;;;22.90;67.50;;;;;;6248942;23;20016;-73
2022/08/22 13:17:20;;;;;;;5.38;1.88;;;22.90;68.00;;;;;;6249068;23;20026;-73
2022/08/22 13:20:12;;;;;;;5.82;2.25;;;22.90;68.00;;;;;;6248001;23;20020;-74
2022/08/22 13:22:42;;;;;;;9.70;2.50;;;22.90;67.70;;;;;;6248964;23;20027;-73
2022/08/22 13:25:25;;;;;;;5.05;1.60;;;22.90;66.80;;;;;;6248551;23;20051;-74
2022/08/22 13:28:01;;;;;;;5.43;2.05;;;22.90;66.70;;;;;;6248963;23;20028;-74
2022/08/22 13:30:40;;;;;;;9.27;2.08;;;22.90;66.60;;;;;;6249053;23;20090;-73
2022/08/22 13:33:20;;;;;;;7.25;2.25;;;22.90;66.20;;;;;;6248584;23;20469;-71
2022/08/22 13:35:52;;;;;;;8.13;1.95;;;22.90;65.20;;;;;;6248808;23;20024;-73
2022/08/22 13:38:32;;;;;;;9.70;2.17;;;22.90;65.70;;;;;;6247763;23;20428;-76
2022/08/22 13:41:00;;;;;;;10.48;1.92;;;22.90;66.10;;;;;;6248447;23;20429;-75
2022/08/22 13:43:31;;;;;;;8.07;1.90;;;22.90;67.00;;;;;;6248779;23;20034;-75
2022/08/22 16:08:39;;;;;;;6.72;2.30;;;23.20;68.30;;;;;;6153387;23;20390;-74
2022/08/22 16:11:04;;;;;;;6.63;2.65;;;23.30;67.80;;;;;;6147901;23;20083;-73
2022/08/22 16:13:37;;;;;;;8.23;2.63;;;23.20;67.60;;;;;;6159498;23;20100;-73
2022/08/22 16:16:05;;;;;;;10.85;3.00;;;23.20;67.50;;;;;;6159300;23;20434;-73
2022/08/22 16:18:38;;;;;;;9.80;2.70;;;23.20;67.60;;;;;;6159336;23;20056;-75
2022/08/22 16:21:15;;;;;;;10.50;2.50;;;23.20;67.40;;;;;;6160292;23;20029;-75
2022/08/22 16:24:01;;;;;;;5.95;2.20;;;23.20;67.00;;;;;;6159144;23;20059;-74
2022/08/22 16:26:29;;;;;;;8.13;2.47;;;23.20;66.90;;;;;;6113444;23;20013;-74
2022/08/22 16:28:58;;;;;;;14.18;3.00;;;23.20;66.60;;;;;;6159846;23;20396;-74
2022/08/22 17:36:34;;;;;;;4.35;1.58;;;23.10;68.00;;;;;;6159082;23;20056;-75
2022/08/22 17:39:21;;;;;;;14.25;2.38;;;23.10;68.00;;;;;;6159122;23;20369;-78
2022/08/22 17:41:59;;;;;;;21.80;3.30;;;23.10;68.00;;;;;;6159148;23;20049;-71
2022/08/22 17:44:36;;;;;;;14.27;3.67;;;23.10;68.40;;;;;;6158808;23;20033;-72
2022/08/22 17:47:13;;;;;;;18.80;3.67;;;23.10;68.40;;;;;;6158694;23;20057;-72
2022/08/22 17:49:45;;;;;;;12.65;2.80;;;23.10;68.50;;;;;;6134045;23;20306;-72
2022/08/22 17:52:39;;;;;;;10.50;2.90;;;23.10;68.50;;;;;;6132798;23;20018;-73
2022/08/22 17:55:11;;;;;;;10.70;2.58;;;23.10;68.20;;;;;;6158654;23;20077;-72
2022/08/22 17:57:48;;;;;;;10.77;2.53;;;23.10;68.30;;;;;;6157526;23;20056;-72
2022/08/22 18:00:33;;;;;;;11.85;2.35;;;23.10;68.30;;;;;;6158525;23;20028;-72
2022/08/22 18:03:20;;;;;;;8.50;2.47;;;23.10;68.20;;;;;;6132277;23;20399;-73
2022/08/22 18:06:01;;;;;;;9.45;2.13;;;23.10;68.20;;;;;;6158399;23;20021;-72
2022/08/22 18:09:01;;;;;;;8.07;2.15;;;23.20;68.20;;;;;;6158693;23;20029;-72
2022/08/22 18:11:39;;;;;;;6.22;2.38;;;23.10;68.10;;;;;;6157898;23;20053;-72
2022/08/22 18:14:11;;;;;;;7.80;2.50;;;23.10;68.00;;;;;;6158684;23;20021;-76
2022/08/22 18:16:45;;;;;;;14.07;3.15;;;23.20;68.00;;;;;;6132336;23;20024;-73
2022/08/22 18:19:37;;;;;;;9.40;2.35;;;23.20;68.10;;;;;;6157699;23;20306;-70
2022/08/22 18:22:26;;;;;;;9.95;2.40;;;23.10;68.20;;;;;;6158394;23;20025;-72
2022/08/22 18:25:23;;;;;;;7.45;2.70;;;23.10;68.20;;;;;;6158541;23;20017;-73
2022/08/22 18:28:27;;;;;;;9.05;2.58;;;23.10;68.30;;;;;;6154017;23;20413;-72
2022/08/22 18:31:01;;;;;;;10.68;2.95;;;23.00;68.40;;;;;;6131118;23;20096;-72
2022/08/22 19:06:50;;;;;;;7.95;3.25;;;22.30;70.70;;;;;;6209493;23;20100;-72
2022/08/22 19:09:40;;;;;;;7.55;3.08;;;22.40;70.20;;;;;;6217605;23;20067;-68
2022/08/22 19:12:08;;;;;;;7.22;2.88;;;22.40;70.10;;;;;;6217382;23;20016;-74
2022/08/22 19:15:04;;;;;;;6.82;3.35;;;22.40;70.00;;;;;;6218080;23;20025;-77
2022/08/22 19:17:47;;;;;;;14.02;3.78;;;22.40;70.00;;;;;;6217909;23;20020;-71
2022/08/22 19:23:32;;;;;;;9.43;3.08;;;22.40;70.00;;;;;;6217602;23;20020;-74
2022/08/22 19:26:28;;;;;;;9.38;2.97;;;22.30;70.00;;;;;;6217827;23;20017;-75
2022/08/22 19:29:00;;;;;;;7.13;3.38;;;22.30;70.00;;;;;;6216782;23;20028;-76
2022/08/22 19:31:34;;;;;;;11.90;3.38;;;22.30;70.30;;;;;;6217612;23;20301;-77
2022/08/22 19:34:18;;;;;;;5.82;3.15;;;22.30;70.30;;;;;;6217265;23;20417;-75
2022/08/22 19:37:03;;;;;;;;;;;22.30;70.40;;;;;;6192151;23;20020;-76
2022/08/22 19:39:38;;;;;;;5.82;2.67;;;22.20;70.30;;;;;;6218139;23;19974;-74
2022/08/22 19:42:19;;;;;;;6.03;2.90;;;22.20;70.50;;;;;;6217581;23;20039;-74
2022/08/22 19:44:52;;;;;;;9.25;2.85;;;22.20;70.50;;;;;;6218159;23;20130;-75
2022/08/22 19:47:18;;;;;;;7.32;3.03;;;22.20;70.50;;;;;;6217254;23;20013;-74
2022/08/22 19:49:49;;;;;;;7.95;3.25;;;22.20;70.50;;;;;;6218199;23;20031;-75
2022/08/22 19:52:14;;;;;;;8.30;3.20;;;22.20;70.50;;;;;;6217883;23;20028;-75
2022/08/22 19:55:05;;;;;;;8.25;3.40;;;22.10;70.50;;;;;;6217735;23;20074;-74
2022/08/22 19:57:52;;;;;;;10.00;3.00;;;22.10;70.50;;;;;;6217378;23;20023;-74
2022/08/22 20:00:39;;;;;;;6.90;2.67;;;22.10;70.30;;;;;;6218268;23;20052;-74
2022/08/22 20:03:17;;;;;;;8.68;3.13;;;22.00;70.40;;;;;;6191069;23;20020;-72
2022/08/22 20:06:09;;;;;;;7.35;3.60;;;22.00;70.70;;;;;;6217221;23;20112;-75
2022/08/22 20:08:55;;;;;;;10.20;3.90;;;22.00;70.90;;;;;;6217535;23;20025;-76
2022/08/22 20:11:51;;;;;;;10.25;4.03;;;21.90;71.00;;;;;;6196466;23;20325;-71
2022/08/22 20:14:31;;;;;;;11.38;3.17;;;21.90;71.20;;;;;;6217002;23;20496;-74
2022/08/22 20:17:24;;;;;;;10.90;2.92;;;21.90;71.50;;;;;;6218626;23;20275;-72
2022/08/22 20:20:03;;;;;;;7.85;2.67;;;21.90;71.60;;;;;;6217632;23;20020;-71
2022/08/22 20:22:44;;;;;;;9.02;3.15;;;21.90;71.60;;;;;;6217880;23;20047;-73
2022/08/22 20:25:22;;;;;;;7.05;2.70;;;22.00;71.50;;;;;;6218235;23;20013;-72
2022/08/22 20:27:59;;;;;;;14.52;3.70;;;22.00;71.60;;;;;;6218475;23;20032;-72
2022/08/22 20:30:45;;;;;;;6.80;2.75;;;22.00;71.70;;;;;;6218064;23;20087;-72
2022/08/22 20:33:28;;;;;;;7.50;2.92;;;22.10;71.50;;;;;;6217798;23;20020;-73
2022/08/22 20:36:00;;;;;;;7.15;3.17;;;22.10;71.40;;;;;;6218396;23;20290;-73
2022/08/22 20:38:37;;;;;;;6.68;2.72;;;22.00;71.30;;;;;;6217168;23;20031;-73
2022/08/22 20:41:24;;;;;;;10.27;3.28;;;22.00;71.20;;;;;;6218361;23;20051;-73
2022/08/22 20:43:55;;;;;;;6.45;2.97;;;22.00;71.00;;;;;;6192466;23;20032;-76
2022/08/22 20:46:32;;;;;;;7.28;3.17;;;22.00;70.80;;;;;;6219208;23;20070;-74
2022/08/22 20:48:59;;;;;;;6.78;2.83;;;22.00;70.70;;;;;;6193463;23;20425;-72
2022/08/22 20:51:28;;;;;;;5.90;2.78;;;22.00;70.70;;;;;;6219688;23;20162;-71
2022/08/22 20:54:03;;;;;;;5.97;2.85;;;22.00;70.70;;;;;;6219145;23;20020;-73
2022/08/22 20:56:35;;;;;;;9.18;3.05;;;22.00;70.70;;;;;;6219923;23;20012;-72
2022/08/22 20:59:14;;;;;;;9.60;3.35;;;22.00;70.70;;;;;;6194218;23;20020;-72
2022/08/22 21:01:40;;;;;;;7.22;2.92;;;22.00;70.70;;;;;;6219307;23;20048;-71
2022/08/22 21:04:06;;;;;;;7.97;3.30;;;22.00;70.60;;;;;;6169277;23;20021;-71
2022/08/22 21:06:34;;;;;;;11.65;3.33;;;22.00;70.60;;;;;;6219129;23;20063;-72
2022/08/22 21:12:17;;;;;;;5.63;3.20;;;22.00;70.40;;;;;;6169346;23;20362;-72
